Time;durP1;ratioP1;P1;durP2;ratioP2;P2;SDS_P1;SDS_P2;PMS_P1;PMS_P2;Temp;Humidity;BMP_temperature;BMP_pressure;BME280_temperature;BME280_humidity;BME280_pressure;Samples;Min_cycle;Max_cycle;Signal;HPM_P1;HPM_P2
2021/03/09 00:00:16;;;;;;;4.70;3.57;;;1.90;76.70;;;;;;5038228;28;20463;-55
2021/03/09 00:02:45;;;;;;;9.47;3.23;;;1.90;77.10;;;;;;5038044;28;20477;-47
2021/03/09 00:05:14;;;;;;;7.13;3.20;;;1.90;77.30;;;;;;5039016;28;20437;-55
2021/03/09 00:07:42;;;;;;;5.60;3.13;;;1.90;77.30;;;;;;5039414;28;20492;-49
2021/03/09 00:10:13;;;;;;;8.17;4.23;;;1.90;78.10;;;;;;5039891;28;20429;-49
2021/03/09 00:12:42;;;;;;;9.47;3.60;;;1.90;77.90;;;;;;5039609;28;20430;-51
2021/03/09 00:15:12;;;;;;;4.03;2.60;;;1.80;78.10;;;;;;5039290;28;20476;-54
2021/03/09 00:17:41;;;;;;;11.03;3.17;;;1.80;79.50;;;;;;5039356;28;20445;-48
2021/03/09 00:20:10;;;;;;;9.23;3.43;;;1.70;79.40;;;;;;5039871;28;20435;-55
2021/03/09 00:22:38;;;;;;;4.97;3.50;;;1.70;80.40;;;;;;5039582;28;20429;-55
2021/03/09 00:25:08;;;;;;;5.80;2.73;;;1.70;80.30;;;;;;5037743;28;20445;-51
2021/03/09 00:27:36;;;;;;;6.43;3.63;;;1.80;80.60;;;;;;5038294;28;20769;-55
2021/03/09 00:30:07;;;;;;;5.37;3.00;;;1.70;80.20;;;;;;5038096;28;20441;-51
2021/03/09 00:32:35;;;;;;;7.10;3.07;;;1.70;80.50;;;;;;5038078;28;20412;-53
2021/03/09 00:35:04;;;;;;;4.23;2.50;;;1.70;80.70;;;;;;5037096;28;20464;-48
2021/03/09 00:37:33;;;;;;;8.43;4.10;;;1.70;81.40;;;;;;5037587;28;20811;-48
2021/03/09 00:40:02;;;;;;;6.77;3.27;;;1.70;81.50;;;;;;5037136;28;20429;-49
2021/03/09 00:42:30;;;;;;;7.47;3.23;;;1.70;81.50;;;;;;5036653;28;20784;-48
2021/03/09 00:44:58;;;;;;;5.23;3.10;;;1.70;81.90;;;;;;5038810;28;20476;-48
2021/03/09 00:47:28;;;;;;;9.37;3.40;;;1.60;82.60;;;;;;5037876;28;20453;-54
2021/03/09 00:49:56;;;;;;;4.40;2.87;;;1.60;83.10;;;;;;5037310;28;20459;-52
2021/03/09 00:52:25;;;;;;;6.07;3.10;;;1.60;83.50;;;;;;5036728;28;20510;-53
2021/03/09 00:54:53;;;;;;;6.17;3.77;;;1.50;84.20;;;;;;5037222;28;20507;-53
2021/03/09 00:57:20;;;;;;;5.43;3.17;;;1.50;84.40;;;;;;5037408;28;20429;-53
2021/03/09 00:59:49;;;;;;;4.27;2.47;;;1.50;85.20;;;;;;5036877;28;20524;-50
2021/03/09 01:02:17;;;;;;;4.97;3.10;;;1.50;85.40;;;;;;5036791;28;20448;-48
2021/03/09 01:04:46;;;;;;;5.50;2.77;;;1.50;85.20;;;;;;5036531;28;20445;-49
2021/03/09 01:07:15;;;;;;;9.53;4.33;;;1.50;86.60;;;;;;5036794;28;20472;-52
2021/03/09 01:09:43;;;;;;;6.33;3.43;;;1.40;86.30;;;;;;5036772;28;20479;-51
2021/03/09 01:12:12;;;;;;;6.20;3.20;;;1.40;86.60;;;;;;5036565;28;20472;-52
2021/03/09 01:14:40;;;;;;;4.33;2.13;;;1.40;87.30;;;;;;5036704;28;20520;-49
2021/03/09 01:17:08;;;;;;;7.63;3.47;;;1.40;88.40;;;;;;5036450;28;20810;-50
2021/03/09 01:19:36;;;;;;;5.03;3.20;;;1.40;88.40;;;;;;5036475;28;20472;-49
2021/03/09 01:22:05;;;;;;;8.00;3.40;;;1.40;88.40;;;;;;5035896;28;20762;-50
2021/03/09 01:24:34;;;;;;;6.60;3.23;;;1.40;88.50;;;;;;5036051;28;20475;-47
2021/03/09 01:27:02;;;;;;;7.13;3.77;;;1.40;88.20;;;;;;5036912;28;20494;-54
2021/03/09 01:29:30;;;;;;;5.87;2.43;;;1.40;88.40;;;;;;5036476;28;20445;-48
2021/03/09 01:31:58;;;;;;;5.93;3.70;;;1.30;88.90;;;;;;5036364;28;20444;-55
2021/03/09 01:34:26;;;;;;;2.70;2.50;;;1.30;89.70;;;;;;5036529;28;20491;-52
2021/03/09 01:36:54;;;;;;;6.00;4.20;;;1.30;90.00;;;;;;5036434;28;20799;-54
2021/03/09 01:39:24;;;;;;;6.00;3.27;;;1.30;90.20;;;;;;5036286;28;20457;-52
2021/03/09 01:41:52;;;;;;;7.33;4.03;;;1.30;90.60;;;;;;5036642;28;20417;-53
2021/03/09 01:44:21;;;;;;;7.87;2.97;;;1.30;90.70;;;;;;5036850;28;20441;-52
2021/03/09 01:46:50;;;;;;;4.73;2.90;;;1.30;90.60;;;;;;5035991;28;20437;-54
2021/03/09 01:49:19;;;;;;;8.97;3.53;;;1.40;90.70;;;;;;5036529;28;20441;-50
2021/03/09 01:51:48;;;;;;;8.90;3.60;;;1.40;90.60;;;;;;5036345;28;20437;-49
2021/03/09 01:54:17;;;;;;;7.70;3.60;;;1.40;90.90;;;;;;5035872;28;20476;-51
2021/03/09 01:56:47;;;;;;;8.33;2.97;;;1.40;91.00;;;;;;5036524;28;20428;-48
2021/03/09 01:59:16;;;;;;;7.47;3.53;;;1.40;91.10;;;;;;5036976;28;20425;-47
2021/03/09 02:01:45;;;;;;;6.50;3.00;;;1.40;91.20;;;;;;5037040;28;20444;-48
2021/03/09 02:04:13;;;;;;;5.73;3.07;;;1.40;91.50;;;;;;5035801;28;20810;-49
2021/03/09 02:06:42;;;;;;;8.47;5.07;;;1.40;91.60;;;;;;5035674;28;20432;-48
2021/03/09 02:09:12;;;;;;;9.23;3.70;;;1.40;91.80;;;;;;5035678;28;20475;-46
2021/03/09 02:11:48;;;;;;;8.97;4.80;;;1.30;92.00;;;;;;5035934;28;20448;-48
2021/03/09 02:14:24;;;;;;;7.00;3.43;;;1.30;92.10;;;;;;5036071;28;20476;-47
2021/03/09 02:17:00;;;;;;;5.80;3.30;;;1.30;92.30;;;;;;5036689;28;20455;-49
2021/03/09 02:20:04;;;;;;;7.97;3.07;;;1.30;92.60;;;;;;5035800;28;20425;-52
2021/03/09 02:22:57;;;;;;;6.87;3.80;;;1.20;92.90;;;;;;5036262;28;20455;-54
2021/03/09 02:25:48;;;;;;;4.67;2.87;;;1.20;93.40;;;;;;5039563;28;20422;-51
2021/03/09 02:28:29;;;;;;;7.63;3.60;;;1.20;93.50;;;;;;5039977;28;20540;-50
2021/03/09 02:30:59;;;;;;;8.10;3.77;;;1.20;93.50;;;;;;5039712;28;20447;-48
2021/03/09 02:33:33;;;;;;;5.00;2.63;;;1.20;93.80;;;;;;5039438;28;20432;-47
2021/03/09 02:36:07;;;;;;;6.80;3.27;;;1.20;93.70;;;;;;5039374;28;20476;-54
2021/03/09 02:38:42;;;;;;;5.63;3.60;;;1.10;94.10;;;;;;5039643;28;20775;-48
2021/03/09 02:41:13;;;;;;;4.77;3.00;;;1.10;94.70;;;;;;5039166;28;20433;-50
2021/03/09 02:43:44;;;;;;;9.90;4.03;;;1.10;94.60;;;;;;5038400;28;20429;-50
2021/03/09 02:46:15;;;;;;;7.77;5.20;;;1.10;94.70;;;;;;5039587;28;20417;-53
2021/03/09 02:48:45;;;;;;;6.87;3.43;;;1.10;95.20;;;;;;5039370;28;20429;-49
2021/03/09 02:51:14;;;;;;;8.17;3.27;;;1.10;95.10;;;;;;5039115;28;20421;-47
2021/03/09 02:53:50;;;;;;;8.63;4.27;;;1.00;95.50;;;;;;5039205;28;20679;-51
2021/03/09 02:56:19;;;;;;;7.27;3.47;;;1.00;95.50;;;;;;5038741;28;20628;-52
2021/03/09 02:58:50;;;;;;;7.70;3.80;;;1.00;95.80;;;;;;5038813;28;20445;-55
2021/03/09 03:01:21;;;;;;;8.00;3.77;;;1.00;95.90;;;;;;5038002;28;20452;-55
2021/03/09 03:03:50;;;;;;;6.37;3.73;;;1.00;95.80;;;;;;5039897;28;20460;-54
2021/03/09 03:06:19;;;;;;;7.83;4.10;;;0.90;96.20;;;;;;5039867;28;20429;-48
2021/03/09 03:08:48;;;;;;;5.60;3.20;;;0.90;96.10;;;;;;5039022;28;20425;-49
2021/03/09 03:11:19;;;;;;;5.03;2.60;;;0.90;96.30;;;;;;5040092;28;20437;-54
2021/03/09 03:13:47;;;;;;;6.03;3.20;;;0.90;96.60;;;;;;5039159;28;20493;-52
2021/03/09 03:16:18;;;;;;;7.17;3.17;;;0.90;96.60;;;;;;5039596;28;20468;-50
2021/03/09 03:18:49;;;;;;;4.63;2.90;;;0.90;96.80;;;;;;5040326;28;20848;-50
2021/03/09 03:21:18;;;;;;;5.87;3.63;;;0.90;96.80;;;;;;5039943;28;20466;-51
2021/03/09 03:23:47;;;;;;;6.80;3.73;;;0.90;97.00;;;;;;5040040;28;20793;-53
2021/03/09 03:26:15;;;;;;;6.00;3.50;;;0.90;97.00;;;;;;5039669;28;20433;-53
2021/03/09 03:28:48;;;;;;;8.77;4.20;;;0.90;97.10;;;;;;5039674;28;20443;-53
2021/03/09 03:31:16;;;;;;;8.40;3.20;;;0.90;97.30;;;;;;5039684;28;20422;-52
2021/03/09 03:33:44;;;;;;;10.50;4.33;;;0.90;97.10;;;;;;5039528;28;20437;-50
2021/03/09 03:36:13;;;;;;;17.47;3.20;;;0.90;97.10;;;;;;5038362;28;20485;-54
2021/03/09 03:38:43;;;;;;;4.23;2.60;;;0.90;97.00;;;;;;5038642;28;20510;-51
2021/03/09 03:41:12;;;;;;;8.60;3.90;;;0.90;97.10;;;;;;5038011;28;20848;-48
2021/03/09 03:43:41;;;;;;;8.67;3.87;;;0.90;97.10;;;;;;5038103;28;20448;-48
2021/03/09 03:46:09;;;;;;;5.77;4.47;;;0.90;97.30;;;;;;5039036;28;20448;-48
2021/03/09 03:48:39;;;;;;;8.67;3.30;;;0.90;97.60;;;;;;5039268;28;20767;-51
2021/03/09 03:51:09;;;;;;;8.33;3.23;;;0.90;97.80;;;;;;5037816;28;20437;-53
2021/03/09 03:53:47;;;;;;;8.67;3.40;;;0.90;97.90;;;;;;5037765;28;20465;-52
2021/03/09 03:56:27;;;;;;;7.37;4.17;;;0.80;97.90;;;;;;5037360;28;20493;-50
2021/03/09 03:59:01;;;;;;;7.63;4.10;;;0.80;98.30;;;;;;5037330;28;20447;-48
2021/03/09 04:01:30;;;;;;;6.90;3.67;;;0.70;98.30;;;;;;5037889;28;20486;-46
2021/03/09 04:03:58;;;;;;;6.90;3.87;;;0.70;98.70;;;;;;5019362;28;20490;-46
2021/03/09 04:06:27;;;;;;;8.30;3.33;;;0.70;98.90;;;;;;5006742;28;20453;-49
2021/03/09 04:08:59;;;;;;;10.23;4.00;;;0.60;98.70;;;;;;5701166;22;20466;-47
2021/03/09 04:11:26;;;;;;;6.60;3.40;;;0.70;98.80;;;;;;5010409;28;20463;-51
2021/03/09 04:19:06;;;;;;;5.50;3.47;;;0.60;98.90;;;;;;5341920;22;20481;-52
2021/03/09 04:21:34;;;;;;;10.97;4.37;;;0.60;99.10;;;;;;5013344;28;20456;-45
2021/03/09 04:24:03;;;;;;;7.90;3.67;;;0.60;99.10;;;;;;5027967;28;20505;-45
2021/03/09 04:26:31;;;;;;;8.80;3.97;;;0.60;99.20;;;;;;5005827;28;20540;-47
2021/03/09 05:23:48;;;;;;;8.40;3.57;;;0.70;99.90;;;;;;5640704;22;20523;-48
2021/03/09 05:26:15;;;;;;;6.00;3.90;;;0.70;99.90;;;;;;5016271;28;20782;-50
2021/03/09 08:41:18;;;;;;;9.93;6.67;;;4.70;88.20;;;;;;5818855;23;20570;-49
2021/03/09 08:44:04;;;;;;;13.90;5.80;;;4.80;86.40;;;;;;4958635;29;20467;-49
2021/03/09 08:46:51;;;;;;;15.90;7.53;;;4.90;85.20;;;;;;4960696;29;20459;-47
2021/03/09 08:49:49;;;;;;;12.10;5.03;;;5.00;83.10;;;;;;4966629;29;20448;-48
2021/03/09 08:52:42;;;;;;;17.20;5.17;;;5.20;82.20;;;;;;4969686;29;20782;-50
2021/03/09 08:55:09;;;;;;;8.87;5.60;;;5.30;80.90;;;;;;4961143;29;20483;-46
2021/03/09 08:57:37;;;;;;;11.20;6.40;;;6.40;99.90;;;;;;4939335;29;20453;-47
2021/03/09 09:00:07;;;;;;;8.50;5.60;;;7.40;83.80;;;;;;4942197;29;20452;-51
2021/03/09 09:02:39;;;;;;;10.63;5.93;;;8.00;76.60;;;;;;4938886;29;20528;-48
2021/03/09 09:05:07;;;;;;;13.87;6.80;;;8.70;65.40;;;;;;4938595;29;20786;-47
2021/03/09 09:07:35;;;;;;;10.57;6.17;;;9.10;60.00;;;;;;4938081;29;20459;-46
2021/03/09 09:10:08;;;;;;;14.67;7.10;;;9.70;56.70;;;;;;4941459;29;20773;-47
2021/03/09 09:12:40;;;;;;;10.77;5.97;;;9.90;55.00;;;;;;4961537;29;20439;-49
2021/03/09 09:15:10;;;;;;;20.60;9.20;;;10.60;53.30;;;;;;4964518;28;20474;-47
2021/03/09 09:17:38;;;;;;;10.73;6.87;;;10.90;50.80;;;;;;4977641;28;20439;-51
2021/03/09 09:24:17;;;;;;;13.03;7.60;;;11.20;48.20;;;;;;4976553;28;20434;-47
2021/03/09 09:26:44;;;;;;;6.47;4.73;;;11.60;46.40;;;;;;4976979;28;20488;-50
2021/03/09 09:29:11;;;;;;;11.70;6.03;;;12.10;45.60;;;;;;4977049;28;20455;-50
2021/03/09 09:31:38;;;;;;;9.60;4.73;;;12.80;43.90;;;;;;4977025;28;20811;-52
2021/03/09 09:34:05;;;;;;;13.80;6.40;;;12.70;41.80;;;;;;4975443;28;20451;-49
2021/03/09 09:36:32;;;;;;;7.83;5.50;;;12.10;42.00;;;;;;4979047;28;20983;-52
2021/03/09 09:39:02;;;;;;;9.27;5.40;;;11.60;42.30;;;;;;4961147;28;20459;-45
2021/03/09 09:41:29;;;;;;;11.50;6.10;;;10.80;42.70;;;;;;4966716;28;20474;-47
2021/03/09 09:43:55;;;;;;;9.73;5.43;;;10.30;45.00;;;;;;4978264;28;20510;-47
2021/03/09 09:46:25;;;;;;;10.07;5.67;;;9.90;45.80;;;;;;4977817;28;20442;-49
2021/03/09 09:48:53;;;;;;;9.17;6.07;;;9.80;45.70;;;;;;4939703;29;20788;-51
2021/03/09 09:51:22;;;;;;;11.20;6.63;;;10.30;45.50;;;;;;4939497;29;20445;-49
2021/03/09 09:53:50;;;;;;;9.67;6.13;;;11.40;44.30;;;;;;4938615;29;20807;-53
2021/03/09 09:56:25;;;;;;;9.73;5.23;;;12.50;43.20;;;;;;4970460;28;20478;-51
2021/03/09 09:58:54;;;;;;;10.00;5.50;;;13.40;41.30;;;;;;4977818;28;20731;-51
2021/03/09 10:01:23;;;;;;;10.47;5.30;;;14.40;39.80;;;;;;4959977;28;20439;-50
2021/03/09 10:03:54;;;;;;;10.30;5.10;;;15.50;38.20;;;;;;4937706;29;20709;-58
2021/03/09 10:06:23;;;;;;;7.57;5.13;;;15.80;35.40;;;;;;4950989;23;20830;-51
2021/03/09 10:08:51;;;;;;;10.27;4.50;;;15.40;35.20;;;;;;4989613;23;20482;-48
2021/03/09 10:11:18;;;;;;;8.60;5.60;;;15.70;35.70;;;;;;4976235;28;20485;-47
2021/03/09 10:13:46;;;;;;;5.20;4.33;;;16.10;35.10;;;;;;4976318;28;20455;-47
2021/03/09 10:16:13;;;;;;;8.10;5.00;;;16.60;34.10;;;;;;4975553;28;20802;-49
2021/03/09 10:18:41;;;;;;;5.70;3.70;;;16.70;33.70;;;;;;4982537;28;20459;-50
2021/03/09 10:21:32;;;;;;;8.77;4.83;;;16.90;33.30;;;;;;4977056;28;20807;-47
2021/03/09 10:24:00;;;;;;;5.27;3.77;;;17.40;32.50;;;;;;4982657;28;20753;-47
2021/03/09 10:26:33;;;;;;;7.60;4.90;;;18.00;31.80;;;;;;4981544;28;20896;-47
2021/03/09 10:29:05;;;;;;;12.33;5.63;;;18.30;31.70;;;;;;4978481;28;20900;-47
2021/03/09 10:31:50;;;;;;;7.70;3.73;;;18.50;30.80;;;;;;4996598;28;20763;-48
2021/03/09 10:34:19;;;;;;;4.67;3.90;;;18.80;29.90;;;;;;4956396;29;20806;-51
2021/03/09 10:36:55;;;;;;;5.40;3.50;;;19.00;30.00;;;;;;4978779;28;20823;-46
2021/03/09 10:39:23;;;;;;;5.90;3.60;;;18.60;29.50;;;;;;4979087;28;20449;-46
2021/03/09 10:41:51;;;;;;;6.63;3.77;;;18.50;29.40;;;;;;4996327;28;20970;-49
2021/03/09 10:44:33;;;;;;;7.90;4.70;;;18.50;29.30;;;;;;4997182;28;20760;-49
2021/03/09 10:47:01;;;;;;;10.53;4.33;;;18.40;29.50;;;;;;4980594;28;20449;-48
2021/03/09 10:49:30;;;;;;;9.23;4.60;;;18.30;30.20;;;;;;4980903;28;20760;-47
2021/03/09 10:52:23;;;;;;;6.47;4.60;;;18.20;31.40;;;;;;4994289;28;20811;-51
2021/03/09 10:54:49;;;;;;;7.30;4.17;;;18.10;29.90;;;;;;4998983;28;20485;-45
2021/03/09 10:57:16;;;;;;;12.83;3.47;;;18.10;29.90;;;;;;4993765;28;20719;-46
2021/03/09 10:59:45;;;;;;;6.63;3.83;;;17.80;29.60;;;;;;4994614;28;20442;-47
2021/03/09 11:02:14;;;;;;;4.33;3.60;;;17.20;29.90;;;;;;4987154;28;20442;-47
2021/03/09 11:04:42;;;;;;;10.00;4.43;;;16.60;30.10;;;;;;4978997;28;20823;-48
2021/03/09 11:07:09;;;;;;;9.97;3.80;;;15.90;30.40;;;;;;4996671;28;20795;-46
2021/03/09 11:09:36;;;;;;;3.80;2.60;;;15.20;31.10;;;;;;4990460;28;20493;-46
2021/03/09 11:14:38;;;;;;;3.40;2.13;;;14.00;30.50;;;;;;5327938;23;21025;-47
2021/03/09 11:17:06;;;;;;;3.70;2.63;;;13.50;31.10;;;;;;4961862;29;20444;-47
2021/03/09 11:19:32;;;;;;;7.17;3.10;;;13.30;32.50;;;;;;4962093;29;20759;-50
2021/03/09 11:22:03;;;;;;;3.80;2.83;;;12.80;32.90;;;;;;4958497;29;20456;-47
2021/03/09 11:24:33;;;;;;;7.10;3.20;;;12.30;32.50;;;;;;4951956;29;20441;-46
2021/03/09 11:27:01;;;;;;;4.20;2.40;;;11.80;33.60;;;;;;4960534;29;20460;-47
2021/03/09 11:29:33;;;;;;;6.37;2.80;;;11.30;34.60;;;;;;4949269;29;20453;-47
2021/03/09 11:32:00;;;;;;;2.80;2.00;;;11.10;34.80;;;;;;4944370;29;20847;-46
2021/03/09 11:34:27;;;;;;;3.97;1.70;;;10.70;35.80;;;;;;4947161;29;20737;-48
2021/03/09 11:36:55;;;;;;;5.47;2.93;;;10.50;35.20;;;;;;4955966;29;20767;-47
2021/03/09 11:39:24;;;;;;;3.40;2.07;;;10.40;34.20;;;;;;4953783;29;20829;-51
2021/03/09 11:41:52;;;;;;;3.40;2.10;;;10.30;33.80;;;;;;4953301;29;20774;-48
2021/03/09 11:44:20;;;;;;;2.70;2.27;;;10.20;34.40;;;;;;4942189;29;20751;-48
2021/03/09 11:46:47;;;;;;;5.27;2.37;;;10.10;35.70;;;;;;4949370;29;20471;-47
2021/03/09 11:49:15;;;;;;;4.27;2.80;;;10.10;36.10;;;;;;4945793;29;20441;-48
2021/03/09 11:51:42;;;;;;;7.00;3.30;;;10.20;37.20;;;;;;4943191;29;20777;-46
2021/03/09 11:54:10;;;;;;;5.13;2.90;;;10.20;36.90;;;;;;4955284;29;20814;-51
2021/03/09 11:56:37;;;;;;;4.60;2.80;;;10.10;37.90;;;;;;4958623;28;20485;-47
2021/03/09 11:59:04;;;;;;;4.67;2.43;;;10.10;37.40;;;;;;4955461;29;20436;-46
2021/03/09 12:01:33;;;;;;;4.37;2.70;;;10.00;36.30;;;;;;4950794;29;20486;-45
2021/03/09 12:03:59;;;;;;;5.40;2.87;;;9.80;37.60;;;;;;4958149;29;20444;-47
2021/03/09 12:06:26;;;;;;;3.57;2.40;;;9.70;37.90;;;;;;4947127;29;20445;-48
2021/03/09 12:08:53;;;;;;;5.03;3.20;;;9.70;38.00;;;;;;4942496;29;20756;-50
2021/03/09 12:11:20;;;;;;;6.73;3.40;;;9.70;38.80;;;;;;4941936;29;20755;-47
2021/03/09 12:13:49;;;;;;;3.93;2.80;;;9.60;39.10;;;;;;4941793;29;20754;-46
2021/03/09 12:16:17;;;;;;;4.43;2.73;;;9.60;38.60;;;;;;4941965;29;20780;-50
2021/03/09 12:18:44;;;;;;;3.47;2.53;;;9.50;38.90;;;;;;4956401;29;20708;-47
2021/03/09 12:21:10;;;;;;;3.80;2.73;;;9.40;38.60;;;;;;4942721;29;20601;-47
2021/03/09 12:23:37;;;;;;;5.23;2.70;;;9.30;38.80;;;;;;4942910;29;20448;-47
2021/03/09 12:26:05;;;;;;;5.23;3.27;;;9.10;39.00;;;;;;4947529;29;20731;-47
2021/03/09 12:28:32;;;;;;;7.20;4.00;;;8.90;39.30;;;;;;4953492;29;20731;-48
2021/03/09 12:31:00;;;;;;;9.13;3.47;;;8.90;40.10;;;;;;4950911;29;20772;-49
2021/03/09 12:33:27;;;;;;;4.63;3.07;;;9.00;40.40;;;;;;4956649;29;20786;-47
2021/03/09 12:35:54;;;;;;;4.50;3.27;;;9.00;39.70;;;;;;4949615;29;20775;-51
2021/03/09 12:38:21;;;;;;;3.73;2.60;;;8.90;40.00;;;;;;4950398;29;20456;-51
2021/03/09 12:40:48;;;;;;;6.43;2.73;;;8.90;40.20;;;;;;4956032;29;20836;-46
2021/03/09 12:43:15;;;;;;;4.50;2.33;;;9.00;40.00;;;;;;4963771;29;20440;-47
2021/03/09 12:45:42;;;;;;;5.83;3.40;;;9.00;40.20;;;;;;4961749;29;20467;-48
2021/03/09 12:48:11;;;;;;;4.67;3.10;;;9.10;39.80;;;;;;4949494;29;20452;-48
2021/03/09 12:50:40;;;;;;;4.80;3.20;;;9.30;40.20;;;;;;4951365;28;20532;-48
2021/03/09 12:53:07;;;;;;;4.87;3.00;;;9.40;39.10;;;;;;4943299;29;20797;-46
2021/03/09 12:55:34;;;;;;;11.00;4.20;;;9.50;39.50;;;;;;4942245;29;20780;-48
2021/03/09 12:58:01;;;;;;;6.40;3.87;;;9.70;39.70;;;;;;4950964;29;20823;-50
2021/03/09 13:00:28;;;;;;;5.97;3.30;;;9.70;39.40;;;;;;4961069;29;20781;-46
2021/03/09 13:02:55;;;;;;;6.70;3.73;;;9.60;39.80;;;;;;4955043;29;20782;-48
2021/03/09 13:05:24;;;;;;;4.40;2.93;;;9.60;39.10;;;;;;4947301;29;20829;-47
2021/03/09 13:07:51;;;;;;;4.00;2.40;;;9.60;37.30;;;;;;4953826;29;20441;-48
2021/03/09 13:10:18;;;;;;;3.83;2.50;;;9.50;37.40;;;;;;4942593;29;20832;-48
2021/03/09 13:12:45;;;;;;;5.63;2.73;;;9.60;37.20;;;;;;4945522;29;20775;-46
2021/03/09 13:15:13;;;;;;;3.63;2.47;;;9.70;36.70;;;;;;4961519;29;20851;-48
2021/03/09 13:17:41;;;;;;;4.70;2.50;;;10.10;36.30;;;;;;4958378;29;20768;-48
2021/03/09 13:20:10;;;;;;;3.90;2.17;;;10.20;35.20;;;;;;4957863;29;20885;-46
2021/03/09 13:22:39;;;;;;;4.87;3.10;;;10.40;35.70;;;;;;4961235;29;20448;-46
2021/03/09 13:25:10;;;;;;;3.80;2.20;;;10.40;35.40;;;;;;4962253;29;20768;-48
2021/03/09 13:27:38;;;;;;;8.90;4.60;;;10.60;35.40;;;;;;4953617;29;20789;-45
2021/03/09 13:30:07;;;;;;;5.90;2.87;;;10.80;35.30;;;;;;4945433;29;20750;-45
2021/03/09 13:32:34;;;;;;;5.23;3.73;;;11.20;33.60;;;;;;4954015;29;20889;-48
2021/03/09 13:35:01;;;;;;;4.53;2.63;;;11.40;32.70;;;;;;4951304;29;20479;-47
2021/03/09 13:37:28;;;;;;;4.60;2.83;;;11.40;32.30;;;;;;4957533;29;20773;-45
2021/03/09 13:39:57;;;;;;;7.83;3.67;;;11.60;32.80;;;;;;4940364;29;20784;-47
2021/03/09 13:42:24;;;;;;;4.40;2.90;;;11.60;34.30;;;;;;4947058;29;20448;-49
2021/03/09 13:44:51;;;;;;;4.77;2.90;;;11.60;33.30;;;;;;4953341;29;20808;-46
2021/03/09 13:47:18;;;;;;;11.63;2.90;;;11.30;32.80;;;;;;4952690;29;20436;-49
2021/03/09 13:49:46;;;;;;;4.50;2.90;;;11.10;33.00;;;;;;4960019;29;20451;-50
2021/03/09 13:52:12;;;;;;;5.80;2.80;;;10.90;33.20;;;;;;4946667;29;20741;-50
2021/03/09 13:54:39;;;;;;;8.27;4.20;;;10.80;34.60;;;;;;4960418;29;20771;-46
2021/03/09 13:57:08;;;;;;;6.13;3.50;;;10.50;33.60;;;;;;4950321;29;20732;-48
2021/03/09 13:59:35;;;;;;;6.50;2.83;;;10.30;33.80;;;;;;4951074;29;20780;-45
2021/03/09 14:02:02;;;;;;;5.07;2.80;;;10.30;34.20;;;;;;4951263;29;20796;-50
2021/03/09 14:04:29;;;;;;;8.33;3.00;;;10.30;35.00;;;;;;4958240;29;20447;-50
2021/03/09 14:06:56;;;;;;;5.43;3.17;;;10.20;34.90;;;;;;4947785;29;20503;-46
2021/03/09 14:09:24;;;;;;;6.03;3.57;;;10.20;34.80;;;;;;4950013;29;20820;-49
2021/03/09 14:11:51;;;;;;;6.53;3.20;;;10.30;35.30;;;;;;4945829;29;20801;-48
2021/03/09 14:14:19;;;;;;;5.97;4.20;;;10.40;34.60;;;;;;4949547;29;20833;-51
2021/03/09 14:16:46;;;;;;;5.70;2.33;;;10.30;34.50;;;;;;4940115;29;21036;-49
2021/03/09 14:19:13;;;;;;;5.87;2.97;;;10.10;34.20;;;;;;4941090;29;20753;-53
2021/03/09 14:21:40;;;;;;;3.60;2.30;;;10.00;34.50;;;;;;4944486;29;20460;-51
2021/03/09 14:24:08;;;;;;;9.10;3.17;;;9.90;35.80;;;;;;4946372;29;20932;-53
2021/03/09 14:26:35;;;;;;;6.57;4.00;;;9.90;35.70;;;;;;4949937;29;20438;-53
2021/03/09 14:29:02;;;;;;;5.73;3.10;;;9.80;35.10;;;;;;4963441;29;20780;-47
2021/03/09 14:31:31;;;;;;;5.90;2.47;;;9.90;35.70;;;;;;4963474;29;20735;-47
2021/03/09 14:34:07;;;;;;;4.00;2.20;;;9.90;35.30;;;;;;4951060;29;20811;-50
2021/03/09 14:36:34;;;;;;;2.83;2.03;;;9.90;35.40;;;;;;4949733;29;20801;-52
2021/03/09 14:39:02;;;;;;;4.30;3.37;;;9.90;35.50;;;;;;4942308;29;20777;-49
2021/03/09 14:41:29;;;;;;;3.73;2.43;;;10.00;34.70;;;;;;4953965;29;20447;-46
2021/03/09 14:43:57;;;;;;;5.37;3.00;;;10.20;34.60;;;;;;4948515;29;20765;-50
2021/03/09 14:46:24;;;;;;;4.00;2.33;;;10.20;34.80;;;;;;4957077;29;20479;-51
2021/03/09 14:48:53;;;;;;;3.97;2.50;;;10.20;34.50;;;;;;4950812;29;20782;-49
2021/03/09 14:51:20;;;;;;;4.80;2.70;;;10.10;34.60;;;;;;4960044;29;20824;-49
2021/03/09 14:53:48;;;;;;;5.00;2.90;;;10.00;34.80;;;;;;4962418;29;20455;-51
2021/03/09 14:56:17;;;;;;;5.57;3.80;;;10.00;35.40;;;;;;4955477;29;20853;-49
2021/03/09 14:58:45;;;;;;;5.20;2.57;;;9.90;35.80;;;;;;4962820;29;20510;-50
2021/03/09 15:01:12;;;;;;;5.13;3.40;;;9.90;35.60;;;;;;4953546;29;20867;-49
2021/03/09 15:03:40;;;;;;;4.23;3.10;;;9.90;36.10;;;;;;4943517;29;20751;-48
2021/03/09 15:06:08;;;;;;;6.97;2.93;;;9.90;35.90;;;;;;4945522;29;20830;-49
2021/03/09 15:08:36;;;;;;;4.90;2.80;;;9.90;35.90;;;;;;4953070;29;20802;-52
2021/03/09 15:11:03;;;;;;;5.30;3.20;;;9.90;35.90;;;;;;4943620;29;20766;-50
2021/03/09 15:13:31;;;;;;;4.90;2.57;;;9.80;36.20;;;;;;4946046;29;20801;-48
2021/03/09 15:15:58;;;;;;;2.60;2.30;;;9.60;35.90;;;;;;4953046;29;20502;-48
2021/03/09 15:18:26;;;;;;;5.77;2.93;;;9.40;36.00;;;;;;4946817;29;20512;-48
2021/03/09 15:20:54;;;;;;;5.23;3.00;;;9.30;36.20;;;;;;4950003;29;20488;-44
2021/03/09 15:23:24;;;;;;;3.87;2.70;;;9.20;36.80;;;;;;4960030;29;20796;-45
2021/03/09 15:25:52;;;;;;;4.03;2.70;;;9.20;37.00;;;;;;4949418;29;21542;-46
2021/03/09 15:28:21;;;;;;;3.07;2.23;;;9.10;36.80;;;;;;4953055;29;20869;-45
2021/03/09 15:30:49;;;;;;;4.30;2.10;;;9.00;36.80;;;;;;4956584;28;20804;-45
2021/03/09 15:33:18;;;;;;;3.80;2.40;;;8.80;36.60;;;;;;4957175;29;20457;-47
2021/03/09 15:35:46;;;;;;;3.53;2.43;;;8.80;37.50;;;;;;4955400;29;20868;-48
2021/03/09 15:38:15;;;;;;;2.93;2.23;;;8.70;37.60;;;;;;4944472;29;20864;-44
2021/03/09 15:40:48;;;;;;;5.67;2.70;;;8.70;37.20;;;;;;4954815;29;20452;-52
2021/03/09 15:43:16;;;;;;;4.37;1.97;;;8.60;37.20;;;;;;4951333;29;20465;-48
2021/03/09 15:45:46;;;;;;;11.83;2.70;;;8.60;37.30;;;;;;4958057;29;20762;-50
2021/03/09 15:48:15;;;;;;;3.07;2.27;;;8.60;37.20;;;;;;4946565;29;20741;-49
2021/03/09 15:50:44;;;;;;;5.07;2.97;;;8.50;37.20;;;;;;4951118;29;20937;-45
2021/03/09 15:53:12;;;;;;;3.27;2.57;;;8.50;37.20;;;;;;4943615;29;20807;-46
2021/03/09 15:55:41;;;;;;;4.30;2.50;;;8.40;37.10;;;;;;4954177;29;21025;-49
2021/03/09 15:58:16;;;;;;;6.67;2.43;;;8.40;37.30;;;;;;4948801;29;21075;-49
2021/03/09 16:00:44;;;;;;;3.37;2.13;;;8.40;37.70;;;;;;4947990;29;20429;-52
2021/03/09 16:03:13;;;;;;;4.27;2.37;;;8.30;37.40;;;;;;4956123;28;20770;-48
2021/03/09 16:05:41;;;;;;;8.40;2.77;;;8.30;37.70;;;;;;4954296;29;20793;-48
2021/03/09 16:08:09;;;;;;;5.57;2.73;;;8.30;38.10;;;;;;4949487;29;20833;-47
2021/03/09 16:10:38;;;;;;;2.63;1.80;;;8.30;38.00;;;;;;4949771;29;20774;-49
2021/03/09 16:13:06;;;;;;;7.13;3.27;;;8.20;38.10;;;;;;4951350;29;20773;-46
2021/03/09 16:15:36;;;;;;;5.90;2.93;;;8.20;38.30;;;;;;4946691;29;20799;-47
2021/03/09 16:18:04;;;;;;;5.57;3.17;;;8.20;38.30;;;;;;4959808;28;20464;-47
2021/03/09 16:20:33;;;;;;;9.60;3.60;;;8.10;38.30;;;;;;4948501;29;20472;-48
2021/03/09 16:23:01;;;;;;;5.47;4.17;;;8.00;38.40;;;;;;4945992;29;20778;-51
2021/03/09 16:25:29;;;;;;;4.10;2.70;;;7.90;38.40;;;;;;4946872;29;20441;-47
2021/03/09 16:27:57;;;;;;;11.23;6.03;;;7.90;38.50;;;;;;4954224;29;20444;-49
2021/03/09 16:30:27;;;;;;;5.97;3.33;;;7.80;38.60;;;;;;4962983;29;20440;-50
2021/03/09 16:32:58;;;;;;;4.53;3.10;;;7.80;38.70;;;;;;4961776;29;20463;-49
2021/03/09 16:35:32;;;;;;;4.53;2.70;;;7.70;38.80;;;;;;4942202;29;20941;-51
2021/03/09 16:37:59;;;;;;;5.43;3.33;;;7.60;38.90;;;;;;4942408;29;20425;-46
2021/03/09 16:40:27;;;;;;;8.00;4.37;;;7.70;39.40;;;;;;4956439;29;20455;-46
2021/03/09 16:42:53;;;;;;;5.40;3.10;;;7.60;39.40;;;;;;4956962;28;20436;-50
2021/03/09 16:45:21;;;;;;;4.30;2.67;;;7.50;39.30;;;;;;4947747;29;20439;-45
2021/03/09 16:47:48;;;;;;;5.97;2.67;;;7.50;39.80;;;;;;4941059;29;21017;-47
2021/03/09 16:50:17;;;;;;;6.10;2.97;;;7.50;40.00;;;;;;4941111;29;20453;-50
2021/03/09 16:52:45;;;;;;;5.87;4.00;;;7.50;40.00;;;;;;4958789;29;20444;-52
2021/03/09 16:55:13;;;;;;;5.53;2.90;;;7.40;39.90;;;;;;4960209;29;20774;-47
2021/03/09 16:57:41;;;;;;;5.50;3.53;;;7.50;40.50;;;;;;4960380;29;20519;-49
2021/03/09 17:00:34;;;;;;;4.50;2.73;;;7.50;40.30;;;;;;4961648;29;20562;-46
2021/03/09 17:03:01;;;;;;;4.33;2.63;;;7.40;40.20;;;;;;4961835;29;20498;-48
2021/03/09 17:05:30;;;;;;;2.83;2.53;;;7.40;39.80;;;;;;4960022;29;20468;-49
2021/03/09 17:07:57;;;;;;;6.77;4.20;;;7.30;39.80;;;;;;4941803;29;20464;-47
2021/03/09 17:10:24;;;;;;;8.20;3.37;;;7.30;39.90;;;;;;4940670;29;20765;-47
2021/03/09 17:12:52;;;;;;;7.80;2.87;;;7.30;40.00;;;;;;4940633;29;20779;-46
2021/03/09 17:15:19;;;;;;;8.57;4.63;;;7.20;40.10;;;;;;4940178;29;20880;-47
2021/03/09 17:17:46;;;;;;;7.00;3.30;;;7.20;40.00;;;;;;4941352;29;20741;-48
2021/03/09 17:20:15;;;;;;;5.50;3.87;;;7.20;40.90;;;;;;4955456;29;20443;-49
2021/03/09 17:26:05;;;;;;;10.43;4.23;;;7.10;40.30;;;;;;4961198;29;20416;-47